Time;durP1;ratioP1;P1;durP2;ratioP2;P2;SDS_P1;SDS_P2;PMS_P1;PMS_P2;Temp;Humidity;BMP_temperature;BMP_pressure;BME280_temperature;BME280_humidity;BME280_pressure;Samples;Min_cycle;Max_cycle;Signal;HPM_P1;HPM_P2
2023/01/08 00:00:21;;;;;;;3.10;0.93;;;;;;;;;;5004384;28;20266;-79
2023/01/08 00:02:48;;;;;;;3.97;0.90;;;;;;;;;;5004260;28;20175;-79
2023/01/08 00:05:13;;;;;;;1.93;0.80;;;;;;;;;;5010977;28;20217;-79
2023/01/08 00:07:39;;;;;;;2.03;0.90;;;;;;;;;;5009470;28;20720;-79
2023/01/08 00:10:04;;;;;;;5.93;0.90;;;;;;;;;;5004705;28;20171;-79
2023/01/08 00:12:29;;;;;;;4.07;0.73;;;;;;;;;;5007410;28;20265;-79
2023/01/08 00:14:54;;;;;;;3.60;1.10;;;;;;;;;;5010355;28;20218;-79
2023/01/08 00:17:20;;;;;;;6.30;0.90;;;;;;;;;;5011186;28;20552;-79
2023/01/08 00:19:45;;;;;;;4.07;1.23;;;;;;;;;;5008778;28;20258;-79
2023/01/08 00:22:10;;;;;;;2.23;1.20;;;;;;;;;;5008300;28;20241;-78
2023/01/08 00:24:35;;;;;;;2.80;1.87;;;;;;;;;;5009026;28;20289;-78
2023/01/08 00:27:00;;;;;;;4.70;1.30;;;;;;;;;;5008012;28;20275;-78
2023/01/08 00:29:26;;;;;;;4.57;2.00;;;;;;;;;;5006158;28;20175;-79
2023/01/08 00:31:51;;;;;;;4.77;2.23;;;;;;;;;;5011170;28;20178;-79
2023/01/08 00:34:16;;;;;;;4.27;1.97;;;;;;;;;;5008222;28;20194;-79
2023/01/08 00:36:41;;;;;;;3.43;1.70;;;;;;;;;;5004145;28;20759;-79
2023/01/08 00:39:06;;;;;;;3.27;1.83;;;;;;;;;;5002619;28;20190;-78
2023/01/08 00:41:32;;;;;;;3.63;2.33;;;;;;;;;;5006191;28;20212;-78
2023/01/08 00:43:57;;;;;;;3.57;2.23;;;;;;;;;;5006306;28;20187;-78
2023/01/08 00:46:22;;;;;;;4.67;2.10;;;;;;;;;;5000933;28;20537;-78
2023/01/08 00:48:47;;;;;;;6.10;2.90;;;;;;;;;;5007618;28;20214;-78
2023/01/08 00:51:12;;;;;;;6.50;2.77;;;;;;;;;;5012259;28;20167;-78
2023/01/08 00:53:38;;;;;;;3.90;2.90;;;;;;;;;;5005596;28;20211;-79
2023/01/08 00:56:05;;;;;;;3.90;2.90;;;;;;;;;;5001934;28;20198;-77
2023/01/08 00:58:30;;;;;;;3.93;3.10;;;;;;;;;;5006709;28;20213;-77
2023/01/08 01:00:55;;;;;;;4.30;3.40;;;;;;;;;;5001400;28;20176;-77
2023/01/08 01:03:20;;;;;;;4.50;2.87;;;;;;;;;;5009357;28;20556;-77
2023/01/08 01:05:46;;;;;;;3.73;2.60;;;;;;;;;;5010809;28;20269;-77
2023/01/08 01:08:11;;;;;;;3.80;2.80;;;;;;;;;;5001922;28;20302;-77
2023/01/08 01:10:37;;;;;;;7.83;2.97;;;;;;;;;;5005794;28;20172;-78
2023/01/08 01:13:03;;;;;;;5.13;1.63;;;;;;;;;;5011938;28;20549;-78
2023/01/08 01:15:28;;;;;;;7.13;1.63;;;;;;;;;;5001227;28;20302;-78
2023/01/08 01:17:53;;;;;;;6.57;1.83;;;;;;;;;;5004398;28;20209;-78
2023/01/08 01:20:18;;;;;;;3.97;1.60;;;;;;;;;;5008013;28;20171;-77
2023/01/08 01:22:44;;;;;;;2.13;0.63;;;;;;;;;;5000286;28;20192;-78
2023/01/08 01:25:09;;;;;;;2.20;0.90;;;;;;;;;;5006750;28;20187;-78
2023/01/08 01:27:34;;;;;;;3.63;0.97;;;;;;;;;;5007469;28;20203;-78
2023/01/08 01:29:59;;;;;;;4.07;1.10;;;;;;;;;;5008596;28;20198;-78
2023/01/08 01:32:24;;;;;;;3.40;0.60;;;;;;;;;;5008215;28;20183;-77
2023/01/08 01:34:50;;;;;;;3.90;0.80;;;;;;;;;;5002028;28;20199;-78
2023/01/08 01:37:15;;;;;;;2.37;0.90;;;;;;;;;;5007963;28;20257;-78
2023/01/08 01:39:42;;;;;;;1.33;1.00;;;;;;;;;;5001469;28;20647;-77
2023/01/08 01:42:38;;;;;;;3.67;1.30;;;;;;;;;;5004002;28;20211;-77
2023/01/08 01:44:56;;;;;;;3.53;1.10;;;;;;;;;;4997739;28;20195;-78
2023/01/08 01:47:27;;;;;;;2.50;0.90;;;;;;;;;;5003392;28;20180;-79
2023/01/08 01:50:07;;;;;;;1.67;0.67;;;;;;;;;;5005678;28;20501;-79
2023/01/08 01:52:36;;;;;;;1.90;0.60;;;;;;;;;;5004121;28;20959;-80
2023/01/08 01:55:02;;;;;;;3.70;0.77;;;;;;;;;;5007885;28;20212;-77
2023/01/08 01:57:28;;;;;;;1.77;1.13;;;;;;;;;;5003062;28;20733;-77
2023/01/08 01:59:53;;;;;;;1.83;1.17;;;;;;;;;;5002165;28;20262;-77
2023/01/08 02:02:19;;;;;;;2.27;1.00;;;;;;;;;;5007251;28;20266;-77
2023/01/08 02:04:44;;;;;;;1.43;0.77;;;;;;;;;;5004334;28;20197;-77
2023/01/08 02:07:21;;;;;;;1.80;0.87;;;;;;;;;;5008203;28;20273;-77
2023/01/08 02:09:53;;;;;;;1.60;1.00;;;;;;;;;;5003660;28;20212;-77
2023/01/08 02:12:32;;;;;;;2.10;0.97;;;;;;;;;;5007217;28;20352;-77
2023/01/08 02:15:10;;;;;;;1.83;1.10;;;;;;;;;;5003821;28;20566;-77
2023/01/08 02:17:56;;;;;;;2.60;1.50;;;;;;;;;;5010707;28;20255;-77
2023/01/08 02:20:25;;;;;;;3.10;1.07;;;;;;;;;;5006933;28;20619;-78
2023/01/08 02:22:57;;;;;;;2.37;0.90;;;;;;;;;;5009307;28;20629;-77
2023/01/08 02:25:29;;;;;;;2.83;1.30;;;;;;;;;;5010380;28;20782;-77
2023/01/08 02:27:55;;;;;;;2.53;1.50;;;;;;;;;;5007847;28;20183;-77
2023/01/08 02:30:21;;;;;;;2.67;1.40;;;;;;;;;;5010318;28;20240;-77
2023/01/08 02:32:46;;;;;;;5.67;1.60;;;;;;;;;;5007306;28;20179;-79
2023/01/08 02:35:11;;;;;;;3.50;1.50;;;;;;;;;;5008057;28;20646;-77
2023/01/08 02:37:37;;;;;;;4.73;1.63;;;;;;;;;;5000856;28;20265;-78
2023/01/08 02:40:19;;;;;;;2.80;1.60;;;;;;;;;;5009690;28;20667;-78
2023/01/08 02:42:55;;;;;;;2.33;1.47;;;;;;;;;;4998218;28;20524;-76
2023/01/08 02:45:21;;;;;;;5.27;2.20;;;;;;;;;;5004699;28;20672;-79
2023/01/08 02:47:50;;;;;;;6.53;2.17;;;;;;;;;;5005282;28;20180;-78
2023/01/08 02:50:30;;;;;;;2.47;1.40;;;;;;;;;;5004593;28;20659;-78
2023/01/08 02:53:01;;;;;;;3.23;1.40;;;;;;;;;;4995163;28;20642;-78
2023/01/08 02:55:27;;;;;;;3.43;1.60;;;;;;;;;;5010873;28;20245;-78
2023/01/08 02:57:53;;;;;;;2.43;1.70;;;;;;;;;;5010675;28;20207;-78
2023/01/08 03:00:19;;;;;;;5.10;1.83;;;;;;;;;;5013406;28;20637;-77
2023/01/08 03:02:45;;;;;;;4.10;1.70;;;;;;;;;;5011609;28;20186;-76
2023/01/08 03:05:19;;;;;;;4.67;1.57;;;;;;;;;;5006614;28;20199;-77
2023/01/08 03:07:44;;;;;;;2.87;1.50;;;;;;;;;;5029615;28;20191;-78
2023/01/08 03:10:10;;;;;;;3.57;1.40;;;;;;;;;;5012500;28;20557;-77
2023/01/08 03:12:42;;;;;;;5.03;1.90;;;;;;;;;;5009782;28;20239;-79
2023/01/08 03:15:08;;;;;;;2.10;1.90;;;;;;;;;;5002275;28;20296;-76
2023/01/08 03:17:38;;;;;;;2.50;1.93;;;;;;;;;;5012742;28;20250;-76
2023/01/08 03:20:09;;;;;;;6.30;2.13;;;;;;;;;;5013726;28;20180;-79
2023/01/08 03:22:36;;;;;;;3.23;2.23;;;;;;;;;;5014338;28;20179;-79
2023/01/08 03:25:03;;;;;;;3.60;2.00;;;;;;;;;;5010867;28;20205;-78
2023/01/08 03:27:29;;;;;;;2.63;1.80;;;;;;;;;;5026224;28;20187;-78
2023/01/08 03:29:57;;;;;;;2.00;1.80;;;;;;;;;;5009289;28;20555;-79
2023/01/08 03:32:22;;;;;;;5.93;2.27;;;;;;;;;;5013152;28;20183;-78
2023/01/08 03:34:49;;;;;;;6.67;2.97;;;;;;;;;;5009184;28;20269;-78
2023/01/08 03:37:16;;;;;;;3.00;1.70;;;;;;;;;;5013704;28;20198;-78
2023/01/08 03:39:50;;;;;;;4.40;2.33;;;;;;;;;;5007744;28;20198;-76
2023/01/08 03:42:16;;;;;;;4.87;3.13;;;;;;;;;;4999237;28;20176;-78
2023/01/08 03:44:41;;;;;;;4.90;2.17;;;;;;;;;;5010447;28;20289;-76
2023/01/08 03:47:07;;;;;;;3.20;2.50;;;;;;;;;;5006202;28;20207;-79
2023/01/08 03:49:33;;;;;;;4.17;3.00;;;;;;;;;;5011092;28;20261;-77
2023/01/08 03:51:59;;;;;;;3.40;2.20;;;;;;;;;;5013780;28;20175;-77
2023/01/08 03:54:27;;;;;;;4.13;2.10;;;;;;;;;;5012781;28;20580;-77
2023/01/08 03:56:52;;;;;;;4.87;2.43;;;;;;;;;;5005838;28;20230;-77
2023/01/08 03:59:17;;;;;;;3.03;2.37;;;;;;;;;;5012070;28;20655;-77
2023/01/08 04:01:43;;;;;;;3.67;3.13;;;;;;;;;;5013302;28;20175;-77
2023/01/08 04:04:09;;;;;;;4.80;1.77;;;;;;;;;;5007687;28;20660;-78
2023/01/08 04:06:34;;;;;;;5.43;2.10;;;;;;;;;;5007703;28;20270;-78
2023/01/08 04:08:59;;;;;;;3.87;1.80;;;;;;;;;;5012646;28;20704;-78
2023/01/08 04:11:25;;;;;;;2.43;1.60;;;;;;;;;;5013097;28;20266;-78
2023/01/08 04:13:50;;;;;;;4.40;1.87;;;;;;;;;;5012959;28;20608;-78
2023/01/08 04:16:15;;;;;;;2.70;1.40;;;;;;;;;;5012827;28;20190;-78
2023/01/08 04:18:40;;;;;;;3.60;1.87;;;;;;;;;;5011775;28;20318;-78
2023/01/08 04:21:05;;;;;;;5.70;1.90;;;;;;;;;;5011806;28;20214;-77
2023/01/08 04:23:31;;;;;;;2.47;1.30;;;;;;;;;;5010525;28;20187;-78
2023/01/08 04:25:56;;;;;;;3.30;1.00;;;;;;;;;;5011740;28;20220;-78
2023/01/08 04:28:21;;;;;;;1.60;1.00;;;;;;;;;;5012031;28;20829;-78
2023/01/08 04:30:46;;;;;;;2.93;0.90;;;;;;;;;;5010014;28;20536;-77
2023/01/08 04:33:12;;;;;;;2.53;1.17;;;;;;;;;;5012883;28;20241;-78
2023/01/08 04:35:37;;;;;;;6.73;1.50;;;;;;;;;;5010137;28;20210;-78
2023/01/08 04:38:02;;;;;;;2.50;1.10;;;;;;;;;;5006134;28;20250;-78
2023/01/08 04:40:28;;;;;;;8.03;1.73;;;;;;;;;;5009625;28;20659;-78
2023/01/08 04:42:53;;;;;;;1.67;0.90;;;;;;;;;;5007216;28;20172;-78
2023/01/08 04:45:18;;;;;;;4.20;1.20;;;;;;;;;;5011722;28;20191;-78
2023/01/08 04:47:43;;;;;;;6.73;1.93;;;;;;;;;;5002322;28;20202;-79
2023/01/08 04:50:09;;;;;;;3.73;1.10;;;;;;;;;;5012858;28;20168;-78
2023/01/08 04:52:34;;;;;;;3.13;0.83;;;;;;;;;;5012562;28;20175;-77
2023/01/08 04:54:59;;;;;;;3.03;0.87;;;;;;;;;;5003974;28;20210;-78
2023/01/08 04:57:25;;;;;;;1.93;0.87;;;;;;;;;;5011486;28;20217;-78
2023/01/08 04:59:50;;;;;;;1.93;0.80;;;;;;;;;;5009557;28;20177;-78
2023/01/08 05:02:15;;;;;;;3.17;1.50;;;;;;;;;;5010665;28;20637;-78
2023/01/08 05:04:40;;;;;;;1.70;0.70;;;;;;;;;;5011072;28;20248;-78
2023/01/08 05:07:06;;;;;;;5.33;1.07;;;;;;;;;;5005551;28;20178;-78
2023/01/08 05:09:32;;;;;;;2.87;1.00;;;;;;;;;;5006706;28;20718;-78
2023/01/08 05:11:57;;;;;;;2.07;0.83;;;;;;;;;;5005119;28;20176;-78
2023/01/08 05:14:22;;;;;;;3.27;1.07;;;;;;;;;;5011638;28;20760;-78
2023/01/08 05:16:47;;;;;;;2.40;1.20;;;;;;;;;;5011591;28;20187;-78
2023/01/08 05:19:12;;;;;;;4.10;0.97;;;;;;;;;;5007579;28;20183;-78
2023/01/08 05:21:38;;;;;;;3.50;1.13;;;;;;;;;;5010854;28;20176;-78
2023/01/08 05:24:03;;;;;;;2.07;0.90;;;;;;;;;;5009378;28;20187;-78
2023/01/08 05:26:28;;;;;;;3.33;1.00;;;;;;;;;;5011682;28;20174;-78
2023/01/08 05:28:53;;;;;;;3.27;1.03;;;;;;;;;;5009551;28;20532;-78
2023/01/08 05:31:19;;;;;;;2.90;1.00;;;;;;;;;;5008328;28;20179;-78
2023/01/08 05:33:44;;;;;;;6.30;1.47;;;;;;;;;;4996365;28;20186;-78
2023/01/08 05:36:11;;;;;;;2.63;1.10;;;;;;;;;;4993892;28;20183;-79
2023/01/08 05:38:36;;;;;;;2.80;1.20;;;;;;;;;;5009367;28;20217;-78
2023/01/08 05:41:01;;;;;;;9.13;1.27;;;;;;;;;;5004572;28;20183;-77
2023/01/08 05:43:27;;;;;;;3.67;1.27;;;;;;;;;;5003195;28;20241;-78
2023/01/08 05:45:52;;;;;;;3.07;1.17;;;;;;;;;;5005697;28;20205;-78
2023/01/08 05:48:17;;;;;;;1.87;0.97;;;;;;;;;;5005938;28;20218;-78
2023/01/08 05:50:42;;;;;;;5.70;1.40;;;;;;;;;;5005506;28;20609;-78
2023/01/08 05:53:08;;;;;;;4.50;1.83;;;;;;;;;;5003087;28;20192;-78
2023/01/08 05:55:33;;;;;;;3.77;1.23;;;;;;;;;;5001689;28;20199;-78
2023/01/08 05:58:02;;;;;;;2.03;1.40;;;;;;;;;;5002898;28;20337;-78
2023/01/08 06:00:27;;;;;;;9.13;2.77;;;;;;;;;;5003946;28;20182;-78
2023/01/08 06:02:53;;;;;;;5.50;1.80;;;;;;;;;;5000450;28;20266;-78
2023/01/08 06:05:18;;;;;;;4.30;1.37;;;;;;;;;;5001753;28;20191;-78
2023/01/08 06:07:43;;;;;;;3.93;1.53;;;;;;;;;;5004087;28;20179;-78
2023/01/08 06:10:09;;;;;;;4.33;1.77;;;;;;;;;;4999684;28;20564;-78
2023/01/08 06:12:34;;;;;;;8.33;1.90;;;;;;;;;;5011156;28;20183;-78
2023/01/08 06:14:59;;;;;;;6.87;1.63;;;;;;;;;;5009680;28;20202;-78
2023/01/08 06:17:24;;;;;;;3.93;2.10;;;;;;;;;;5000631;28;20206;-78
2023/01/08 06:19:50;;;;;;;7.60;3.10;;;;;;;;;;4999444;28;20222;-78
2023/01/08 06:22:15;;;;;;;10.30;1.97;;;;;;;;;;5006006;28;20586;-78
2023/01/08 06:24:40;;;;;;;3.30;1.33;;;;;;;;;;5000357;28;20707;-78
2023/01/08 06:27:05;;;;;;;4.83;1.90;;;;;;;;;;5001590;28;20263;-78
2023/01/08 06:29:30;;;;;;;4.00;1.90;;;;;;;;;;5010121;28;20612;-78
2023/01/08 06:31:55;;;;;;;5.77;2.10;;;;;;;;;;5005515;28;20178;-78
2023/01/08 06:34:21;;;;;;;4.50;2.10;;;;;;;;;;5009143;28;20219;-78
2023/01/08 06:36:46;;;;;;;6.00;2.33;;;;;;;;;;5010282;28;20265;-78
2023/01/08 06:39:12;;;;;;;3.70;2.00;;;;;;;;;;5007128;28;20207;-79
2023/01/08 06:41:37;;;;;;;6.67;2.03;;;;;;;;;;5003348;28;20540;-78
2023/01/08 06:44:02;;;;;;;3.77;1.90;;;;;;;;;;5005562;28;20253;-76
2023/01/08 06:46:27;;;;;;;4.73;2.00;;;;;;;;;;5005908;28;20178;-78
2023/01/08 06:48:53;;;;;;;4.00;1.70;;;;;;;;;;5010937;28;20538;-78
2023/01/08 06:51:18;;;;;;;6.47;1.90;;;;;;;;;;5011771;28;20187;-79
2023/01/08 06:53:43;;;;;;;2.87;1.77;;;;;;;;;;5013354;28;20175;-77
2023/01/08 06:56:09;;;;;;;5.47;2.00;;;;;;;;;;5010457;28;20198;-77
2023/01/08 06:58:35;;;;;;;5.20;2.00;;;;;;;;;;4997988;28;20211;-76
2023/01/08 07:01:00;;;;;;;4.77;2.20;;;;;;;;;;5002825;28;20179;-77
2023/01/08 07:03:26;;;;;;;6.97;2.50;;;;;;;;;;5009476;28;20175;-77
2023/01/08 07:05:51;;;;;;;6.07;2.00;;;;;;;;;;5006349;28;20199;-79
2023/01/08 07:08:17;;;;;;;9.43;3.50;;;;;;;;;;5008479;28;20182;-78
2023/01/08 07:10:42;;;;;;;6.70;1.80;;;;;;;;;;5011831;28;20181;-79
2023/01/08 07:13:08;;;;;;;4.67;1.73;;;;;;;;;;5012255;28;20179;-77
2023/01/08 07:15:37;;;;;;;2.93;1.93;;;;;;;;;;5022518;22;20258;-72
2023/01/08 07:18:05;;;;;;;4.73;1.93;;;;;;;;;;5011730;28;20210;-72
2023/01/08 07:20:31;;;;;;;6.43;2.00;;;;;;;;;;5012020;28;20234;-72
2023/01/08 07:23:03;;;;;;;8.23;2.60;;;;;;;;;;5013562;28;20214;-72
2023/01/08 07:25:28;;;;;;;6.53;2.03;;;;;;;;;;5010325;28;20218;-72
2023/01/08 07:27:53;;;;;;;4.90;1.83;;;;;;;;;;5006617;28;20172;-72
2023/01/08 07:30:19;;;;;;;4.43;1.77;;;;;;;;;;5010253;28;20265;-72
2023/01/08 07:32:44;;;;;;;8.27;2.53;;;;;;;;;;5011191;28;20193;-70
2023/01/08 07:35:09;;;;;;;6.13;2.30;;;;;;;;;;5003926;28;20668;-71
2023/01/08 07:37:38;;;;;;;5.47;1.70;;;;;;;;;;5003772;28;20210;-71
2023/01/08 07:40:03;;;;;;;7.03;2.03;;;;;;;;;;5010869;28;20266;-71
2023/01/08 07:42:28;;;;;;;5.27;1.50;;;;;;;;;;5003185;28;20300;-71
2023/01/08 07:44:53;;;;;;;5.20;1.50;;;;;;;;;;5002525;28;20194;-70
2023/01/08 07:47:19;;;;;;;3.53;1.60;;;;;;;;;;5010061;28;20617;-72
2023/01/08 07:49:44;;;;;;;4.13;1.63;;;;;;;;;;5012299;28;20198;-70
2023/01/08 07:52:09;;;;;;;6.30;1.70;;;;;;;;;;5013588;28;20171;-70
2023/01/08 07:54:34;;;;;;;6.53;1.60;;;;;;;;;;5011785;28;20687;-70
2023/01/08 07:57:00;;;;;;;5.77;2.30;;;;;;;;;;5007572;28;20202;-71
2023/01/08 07:59:25;;;;;;;5.37;1.70;;;;;;;;;;5000675;28;20655;-71
2023/01/08 08:01:50;;;;;;;4.63;1.70;;;;;;;;;;4998512;28;20224;-70
2023/01/08 08:04:15;;;;;;;7.70;2.57;;;;;;;;;;5010813;28;20405;-71
2023/01/08 08:06:40;;;;;;;4.63;1.40;;;;;;;;;;5008299;28;20658;-70
2023/01/08 08:09:06;;;;;;;7.03;2.47;;;;;;;;;;5003664;28;20179;-72
2023/01/08 08:11:31;;;;;;;8.53;1.90;;;;;;;;;;5007750;28;20187;-71
2023/01/08 08:13:56;;;;;;;7.67;1.90;;;;;;;;;;5003383;28;20224;-71
2023/01/08 08:16:21;;;;;;;6.80;1.80;;;;;;;;;;5007484;28;20183;-70
2023/01/08 08:18:47;;;;;;;5.73;1.57;;;;;;;;;;5012757;28;20249;-71
2023/01/08 08:21:12;;;;;;;8.77;1.43;;;;;;;;;;5011844;28;20233;-71
2023/01/08 08:23:37;;;;;;;13.13;2.03;;;;;;;;;;5012778;28;20167;-72
2023/01/08 08:26:03;;;;;;;4.37;1.20;;;;;;;;;;5008803;28;20207;-72
2023/01/08 08:28:28;;;;;;;4.77;1.70;;;;;;;;;;5003413;28;20242;-72
2023/01/08 08:30:53;;;;;;;4.83;1.37;;;;;;;;;;5008470;28;20258;-73
2023/01/08 08:33:19;;;;;;;5.77;1.17;;;;;;;;;;5002510;28;20266;-72
2023/01/08 08:35:48;;;;;;;9.40;1.57;;;;;;;;;;5008831;28;20198;-73
2023/01/08 08:38:13;;;;;;;9.27;1.50;;;;;;;;;;5010622;28;20265;-71
2023/01/08 08:40:38;;;;;;;6.00;2.30;;;;;;;;;;5009174;28;20267;-71
2023/01/08 08:43:03;;;;;;;5.87;1.40;;;;;;;;;;5004344;28;20172;-71
2023/01/08 08:45:29;;;;;;;7.47;1.63;;;;;;;;;;5000811;28;20199;-72
2023/01/08 08:47:54;;;;;;;5.70;1.17;;;;;;;;;;5008106;28;20207;-71
2023/01/08 08:50:20;;;;;;;6.90;1.77;;;;;;;;;;5004159;28;20182;-72
2023/01/08 08:52:47;;;;;;;7.20;1.40;;;;;;;;;;5005876;28;20221;-72
2023/01/08 08:55:14;;;;;;;7.77;1.73;;;;;;;;;;5000321;28;20191;-71
2023/01/08 08:57:40;;;;;;;6.23;1.73;;;;;;;;;;5003665;28;20203;-72
2023/01/08 09:00:05;;;;;;;6.33;1.70;;;;;;;;;;5003901;28;20559;-72
2023/01/08 09:02:31;;;;;;;7.60;1.60;;;;;;;;;;5009069;28;20245;-72
2023/01/08 09:04:56;;;;;;;7.33;1.77;;;;;;;;;;5004509;28;20260;-73
2023/01/08 09:07:21;;;;;;;13.10;2.17;;;;;;;;;;5010540;28;20229;-73
2023/01/08 09:09:46;;;;;;;6.67;1.57;;;;;;;;;;5009654;28;20253;-71
2023/01/08 09:12:11;;;;;;;9.00;1.97;;;;;;;;;;5010562;28;20570;-70
2023/01/08 09:14:43;;;;;;;6.90;1.60;;;;;;;;;;5131489;27;20881;-71
2023/01/08 09:17:08;;;;;;;11.20;2.27;;;;;;;;;;5124775;27;20269;-71
2023/01/08 09:19:34;;;;;;;10.60;1.60;;;;;;;;;;5122586;27;20246;-71
2023/01/08 09:22:00;;;;;;;9.47;2.10;;;;;;;;;;5128268;27;20179;-71
2023/01/08 09:24:25;;;;;;;6.70;1.73;;;;;;;;;;5116148;27;20204;-72
2023/01/08 09:26:51;;;;;;;11.37;3.17;;;;;;;;;;5117792;28;20179;-71
2023/01/08 09:29:17;;;;;;;6.13;1.50;;;;;;;;;;5122518;27;20166;-72
2023/01/08 09:31:42;;;;;;;8.50;1.80;;;;;;;;;;5145428;27;20189;-71
2023/01/08 09:34:07;;;;;;;6.03;1.83;;;;;;;;;;5119765;27;20187;-71
2023/01/08 09:36:32;;;;;;;8.17;1.77;;;;;;;;;;5142000;27;20221;-72
2023/01/08 09:38:57;;;;;;;6.63;2.57;;;;;;;;;;5123272;27;20175;-71
2023/01/08 09:41:27;;;;;;;9.97;2.63;;;;;;;;;;5129187;27;20265;-71
2023/01/08 09:43:54;;;;;;;13.63;2.47;;;;;;;;;;5119468;27;20211;-70
2023/01/08 09:46:21;;;;;;;4.70;1.80;;;;;;;;;;5120656;27;20252;-71
2023/01/08 09:48:46;;;;;;;5.70;1.80;;;;;;;;;;5117650;27;20191;-71
2023/01/08 09:51:12;;;;;;;6.97;1.87;;;;;;;;;;5123646;28;20179;-71
2023/01/08 09:53:38;;;;;;;5.57;1.73;;;;;;;;;;5124630;28;20210;-71
2023/01/08 09:56:08;;;;;;;6.53;1.80;;;;;;;;;;5128323;27;20198;-71
2023/01/08 09:58:36;;;;;;;3.77;1.80;;;;;;;;;;5120436;27;20262;-71
2023/01/08 10:01:02;;;;;;;5.67;1.67;;;;;;;;;;5126802;27;20254;-71
2023/01/08 10:03:37;;;;;;;4.73;1.57;;;;;;;;;;5117082;27;20262;-71
2023/01/08 10:06:07;;;;;;;4.97;2.10;;;;;;;;;;5117524;28;20213;-72
2023/01/08 10:08:32;;;;;;;5.17;1.60;;;;;;;;;;5122253;28;20875;-71
2023/01/08 10:10:57;;;;;;;7.10;2.20;;;;;;;;;;5116008;28;20172;-71
2023/01/08 10:13:23;;;;;;;6.90;2.23;;;;;;;;;;5123732;27;20220;-71
2023/01/08 10:15:48;;;;;;;4.83;1.90;;;;;;;;;;5123852;27;20286;-71
2023/01/08 10:18:17;;;;;;;7.73;1.90;;;;;;;;;;5123191;28;20203;-71
2023/01/08 10:20:42;;;;;;;8.67;2.80;;;;;;;;;;5110825;28;20176;-70
2023/01/08 10:23:11;;;;;;;9.47;2.13;;;;;;;;;;5114350;27;20191;-71
2023/01/08 10:25:56;;;;;;;3.43;1.33;;;;;;;;;;5102683;28;20660;-71
2023/01/08 10:28:26;;;;;;;10.40;2.17;;;;;;;;;;5112889;27;20215;-71
2023/01/08 10:30:52;;;;;;;4.10;1.40;;;;;;;;;;5103086;28;20186;-71
2023/01/08 10:33:17;;;;;;;6.27;2.00;;;;;;;;;;5107840;28;20204;-71
2023/01/08 10:35:49;;;;;;;8.20;1.90;;;;;;;;;;5101770;28;20199;-71
2023/01/08 10:38:26;;;;;;;5.10;1.90;;;;;;;;;;5103325;28;20545;-71
2023/01/08 10:40:51;;;;;;;10.27;1.90;;;;;;;;;;5105492;27;20193;-71
2023/01/08 10:43:21;;;;;;;6.57;1.42;;;;;;;;;;5111938;27;20180;-71
2023/01/08 10:46:01;;;;;;;2.93;1.50;;;;;;;;;;5109200;27;20234;-71
2023/01/08 10:48:37;;;;;;;5.73;1.60;;;;;;;;;;5112436;27;20617;-71
2023/01/08 10:51:03;;;;;;;4.40;1.70;;;;;;;;;;5114284;27;20187;-71
2023/01/08 10:53:29;;;;;;;3.47;1.20;;;;;;;;;;5121158;27;20198;-70
2023/01/08 10:55:58;;;;;;;3.17;1.30;;;;;;;;;;5103480;27;20204;-71
2023/01/08 10:58:23;;;;;;;5.82;1.50;;;;;;;;;;5116774;27;20240;-71
2023/01/08 11:00:48;;;;;;;4.78;1.23;;;;;;;;;;5108376;27;20587;-71
2023/01/08 11:03:25;;;;;;;5.80;1.38;;;;;;;;;;5102544;28;20176;-71
2023/01/08 11:05:50;;;;;;;6.15;2.03;;;;;;;;;;5106374;28;20248;-71
2023/01/08 11:08:16;;;;;;;3.85;1.33;;;;;;;;;;5109797;27;20646;-71
2023/01/08 11:10:42;;;;;;;4.10;0.88;;;;;;;;;;5102488;27;20183;-70
2023/01/08 11:13:15;;;;;;;6.03;1.17;;;;;;;;;;5111950;27;20198;-71
2023/01/08 11:15:40;;;;;;;6.80;1.92;;;;;;;;;;5106570;28;20193;-71
2023/01/08 11:18:10;;;;;;;5.28;1.45;;;;;;;;;;5107721;28;20264;-71
2023/01/08 11:20:35;;;;;;;3.42;1.10;;;;;;;;;;5099456;28;20254;-71
2023/01/08 11:23:21;;;;;;;3.65;1.25;;;;;;;;;;5101380;28;20320;-71
2023/01/08 11:25:49;;;;;;;3.42;1.20;;;;;;;;;;5103427;28;20548;-71
2023/01/08 11:28:19;;;;;;;5.00;1.60;;;;;;;;;;5111358;28;20179;-71
2023/01/08 11:30:49;;;;;;;5.55;1.58;;;;;;;;;;5113468;28;20313;-71
2023/01/08 11:33:17;;;;;;;3.38;1.00;;;;;;;;;;5107918;28;20207;-71
2023/01/08 11:35:47;;;;;;;2.75;1.50;;;;;;;;;;5111754;28;20199;-71
2023/01/08 11:38:12;;;;;;;2.55;1.30;;;;;;;;;;5099053;28;20195;-71
2023/01/08 11:40:51;;;;;;;2.78;1.25;;;;;;;;;;5103680;28;20167;-70
2023/01/08 11:43:26;;;;;;;3.13;1.38;;;;;;;;;;5107281;28;20184;-71
2023/01/08 11:46:09;;;;;;;4.25;1.17;;;;;;;;;;5103677;28;20206;-71
2023/01/08 11:48:53;;;;;;;2.45;1.00;;;;;;;;;;5103285;28;20706;-72
2023/01/08 11:51:24;;;;;;;4.95;1.33;;;;;;;;;;5110748;28;20183;-71
2023/01/08 11:54:08;;;;;;;3.08;1.52;;;;;;;;;;5099429;28;20204;-71
2023/01/08 11:56:33;;;;;;;5.03;2.13;;;;;;;;;;5095334;28;20175;-71
2023/01/08 11:59:13;;;;;;;3.38;1.13;;;;;;;;;;5100320;28;20279;-70
2023/01/08 12:02:00;;;;;;;3.08;1.27;;;;;;;;;;5095145;28;20186;-72
2023/01/08 12:04:48;;;;;;;2.23;1.20;;;;;;;;;;5095544;28;20285;-72
2023/01/08 12:07:14;;;;;;;3.90;1.60;;;;;;;;;;5094949;28;20195;-72
2023/01/08 12:09:41;;;;;;;3.07;1.60;;;;;;;;;;5103520;28;20648;-72
2023/01/08 12:12:17;;;;;;;4.83;1.57;;;;;;;;;;5096591;28;20565;-72
2023/01/08 12:15:01;;;;;;;6.27;1.90;;;;;;;;;;5095778;28;20238;-72
2023/01/08 12:17:29;;;;;;;2.77;1.30;;;;;;;;;;5099611;28;20632;-72
2023/01/08 12:19:55;;;;;;;3.00;1.40;;;;;;;;;;5100927;28;20269;-71
2023/01/08 12:22:39;;;;;;;6.82;1.77;;;;;;;;;;5097785;28;20180;-72
2023/01/08 12:25:07;;;;;;;3.30;1.58;;;;;;;;;;5099132;28;20780;-72
2023/01/08 12:27:32;;;;;;;3.15;1.30;;;;;;;;;;5098054;28;20176;-72
2023/01/08 12:30:08;;;;;;;3.17;1.42;;;;;;;;;;5103714;28;20171;-72
2023/01/08 12:32:36;;;;;;;7.55;1.60;;;;;;;;;;5099161;28;20603;-72
2023/01/08 12:35:20;;;;;;;5.32;1.95;;;;;;;;;;5107581;28;20191;-72
2023/01/08 12:37:55;;;;;;;3.40;1.10;;;;;;;;;;5098822;28;20183;-72
2023/01/08 12:40:25;;;;;;;4.00;0.88;;;;;;;;;;5098546;28;20175;-72
2023/01/08 12:42:51;;;;;;;2.83;1.10;;;;;;;;;;5104231;28;20237;-72
2023/01/08 12:45:21;;;;;;;3.10;1.30;;;;;;;;;;5098999;28;20676;-72
2023/01/08 12:47:49;;;;;;;4.32;1.20;;;;;;;;;;5106823;27;20300;-72
2023/01/08 12:50:20;;;;;;;1.73;0.93;;;;;;;;;;5098197;27;20191;-72
2023/01/08 12:52:54;;;;;;;3.78;1.00;;;;;;;;;;5100089;27;20291;-72
2023/01/08 12:55:30;;;;;;;3.17;1.02;;;;;;;;;;5090914;28;20210;-72
2023/01/08 12:58:11;;;;;;;3.25;1.30;;;;;;;;;;5095406;27;20187;-72
2023/01/08 13:00:42;;;;;;;2.35;1.00;;;;;;;;;;5096519;28;20184;-72
2023/01/08 13:03:10;;;;;;;1.10;0.70;;;;;;;;;;5092085;28;20674;-72
2023/01/08 13:05:36;;;;;;;3.50;1.17;;;;;;;;;;5097011;28;20207;-71
2023/01/08 13:08:03;;;;;;;3.80;1.35;;;;;;;;;;5099155;28;20172;-71
2023/01/08 13:10:32;;;;;;;4.60;1.45;;;;;;;;;;5094322;28;20303;-71
2023/01/08 13:13:00;;;;;;;2.20;0.90;;;;;;;;;;5105035;28;20210;-76
2023/01/08 13:15:26;;;;;;;3.22;1.13;;;;;;;;;;5107218;27;20292;-72
2023/01/08 13:17:55;;;;;;;2.35;1.23;;;;;;;;;;5103126;28;20176;-71
2023/01/08 13:20:25;;;;;;;2.60;0.93;;;;;;;;;;5096399;28;20270;-72
2023/01/08 13:22:55;;;;;;;4.60;1.33;;;;;;;;;;5102311;28;20206;-72
2023/01/08 13:25:20;;;;;;;3.88;0.90;;;;;;;;;;5107497;28;20203;-72
2023/01/08 13:27:46;;;;;;;3.25;0.70;;;;;;;;;;5102060;28;20223;-72
2023/01/08 13:30:30;;;;;;;4.05;1.10;;;;;;;;;;5107769;28;20228;-71
2023/01/08 13:32:55;;;;;;;2.75;0.85;;;;;;;;;;5094782;28;20204;-71
2023/01/08 13:35:22;;;;;;;1.65;0.75;;;;;;;;;;5100180;28;20612;-72
2023/01/08 13:38:03;;;;;;;3.90;1.20;;;;;;;;;;5095458;28;20258;-72
2023/01/08 13:40:38;;;;;;;2.38;1.10;;;;;;;;;;5092645;28;20191;-72
2023/01/08 13:43:05;;;;;;;3.15;1.13;;;;;;;;;;5096549;28;20171;-72
2023/01/08 13:45:30;;;;;;;3.67;0.98;;;;;;;;;;5094036;28;20208;-72
2023/01/08 13:47:55;;;;;;;5.72;1.33;;;;;;;;;;5095842;28;20190;-72
2023/01/08 13:50:23;;;;;;;2.85;1.15;;;;;;;;;;5104547;28;20181;-72
2023/01/08 13:52:55;;;;;;;3.58;0.85;;;;;;;;;;5100421;28;20227;-72
2023/01/08 13:55:26;;;;;;;4.82;1.00;;;;;;;;;;5094828;28;20200;-72
2023/01/08 13:57:54;;;;;;;2.75;1.20;;;;;;;;;;5094459;28;20176;-72
2023/01/08 14:00:24;;;;;;;3.70;0.80;;;;;;;;;;5100127;28;20208;-71
2023/01/08 14:02:49;;;;;;;2.47;0.90;;;;;;;;;;5103360;28;20176;-72
2023/01/08 14:05:20;;;;;;;3.95;1.00;;;;;;;;;;5100615;28;20198;-71
2023/01/08 14:07:45;;;;;;;1.65;1.13;;;;;;;;;;5101721;28;20176;-72
2023/01/08 14:10:11;;;;;;;2.55;1.00;;;;;;;;;;5098460;28;20172;-71
2023/01/08 14:12:37;;;;;;;2.40;0.80;;;;;;;;;;5114323;27;20535;-72
2023/01/08 14:15:05;;;;;;;3.55;0.90;;;;;;;;;;5103542;28;20328;-71
2023/01/08 14:17:31;;;;;;;3.08;1.10;;;;;;;;;;5100513;28;20175;-71
2023/01/08 14:19:56;;;;;;;3.03;1.00;;;;;;;;;;5100560;28;20198;-71
2023/01/08 14:22:25;;;;;;;3.65;1.20;;;;;;;;;;5097691;28;20340;-72
2023/01/08 14:24:53;;;;;;;3.63;0.77;;;;;;;;;;5105551;28;20233;-71
2023/01/08 14:27:26;;;;;;;6.38;1.13;;;;;;;;;;5103938;28;20186;-71
2023/01/08 14:29:51;;;;;;;6.40;1.37;;;;;;;;;;5103700;28;20213;-71
2023/01/08 14:32:19;;;;;;;2.63;0.80;;;;;;;;;;5107014;28;20176;-71
2023/01/08 14:34:44;;;;;;;2.30;0.80;;;;;;;;;;5096234;28;20565;-71
2023/01/08 14:37:13;;;;;;;2.47;0.87;;;;;;;;;;5103410;28;20174;-70
2023/01/08 14:39:39;;;;;;;7.07;1.03;;;;;;;;;;5099139;27;20212;-71
2023/01/08 14:44:57;;;;;;;1.93;0.77;;;;;;;;;;5106824;28;20713;-70
2023/01/08 14:47:25;;;;;;;4.03;1.00;;;;;;;;;;5106858;28;20267;-70